sensor_id;sensor_type;location;lat;lon;timestamp;temperature;humidity
29363;DHT22;16349;53.672;10.014;2023-05-10T00:02:08;14.20;75.70
29363;DHT22;16349;53.672;10.014;2023-05-10T00:04:35;14.20;78.20
29363;DHT22;16349;53.672;10.014;2023-05-10T00:07:02;13.50;86.60
29363;DHT22;16349;53.672;10.014;2023-05-10T00:09:29;14.10;76.90
29363;DHT22;16349;53.672;10.014;2023-05-10T00:11:57;14.10;77.20
29363;DHT22;16349;53.672;10.014;2023-05-10T00:14:26;14.10;77.60
29363;DHT22;16349;53.672;10.014;2023-05-10T00:16:54;14.10;77.80
29363;DHT22;16349;53.672;10.014;2023-05-10T00:19:20;14.00;78.10
29363;DHT22;16349;53.672;10.014;2023-05-10T00:21:47;14.00;78.40
29363;DHT22;16349;53.672;10.014;2023-05-10T00:24:14;14.00;78.80
29363;DHT22;16349;53.672;10.014;2023-05-10T00:26:41;14.00;79.10
29363;DHT22;16349;53.672;10.014;2023-05-10T00:29:08;13.90;79.30
29363;DHT22;16349;53.672;10.014;2023-05-10T00:31:37;13.90;81.80
29363;DHT22;16349;53.672;10.014;2023-05-10T00:34:04;13.90;80.00
29363;DHT22;16349;53.672;10.014;2023-05-10T00:36:31;13.90;80.20
29363;DHT22;16349;53.672;10.014;2023-05-10T00:38:58;13.90;96.60
29363;DHT22;16349;53.672;10.014;2023-05-10T00:46:46;13.90;96.30
29363;DHT22;16349;53.672;10.014;2023-05-10T00:49:14;13.90;96.30
29363;DHT22;16349;53.672;10.014;2023-05-10T00:51:41;13.80;97.50
29363;DHT22;16349;53.672;10.014;2023-05-10T00:54:11;13.70;86.30
29363;DHT22;16349;53.672;10.014;2023-05-10T00:56:41;13.70;99.90
29363;DHT22;16349;53.672;10.014;2023-05-10T00:59:09;13.70;99.90
29363;DHT22;16349;53.672;10.014;2023-05-10T01:01:36;13.60;99.90
29363;DHT22;16349;53.672;10.014;2023-05-10T01:04:06;13.60;91.90
29363;DHT22;16349;53.672;10.014;2023-05-10T01:06:35;13.60;92.00
29363;DHT22;16349;53.672;10.014;2023-05-10T01:09:02;13.50;85.20
29363;DHT22;16349;53.672;10.014;2023-05-10T01:11:29;13.50;85.40
29363;DHT22;16349;53.672;10.014;2023-05-10T01:13:57;13.50;85.60
29363;DHT22;16349;53.672;10.014;2023-05-10T01:16:48;13.50;86.20
29363;DHT22;16349;53.672;10.014;2023-05-10T01:19:20;13.40;86.20
29363;DHT22;16349;53.672;10.014;2023-05-10T01:21:55;13.40;86.80
29363;DHT22;16349;53.672;10.014;2023-05-10T01:24:46;13.30;87.50
29363;DHT22;16349;53.672;10.014;2023-05-10T01:27:24;13.30;88.50
29363;DHT22;16349;53.672;10.014;2023-05-10T01:30:05;13.20;88.80
29363;DHT22;16349;53.672;10.014;2023-05-10T01:32:40;13.20;90.00
29363;DHT22;16349;53.672;10.014;2023-05-10T01:35:16;13.20;89.90
29363;DHT22;16349;53.672;10.014;2023-05-10T01:37:48;13.10;90.20
29363;DHT22;16349;53.672;10.014;2023-05-10T01:40:21;13.10;90.40
29363;DHT22;16349;53.672;10.014;2023-05-10T01:42:51;13.10;90.50
29363;DHT22;16349;53.672;10.014;2023-05-10T01:45:26;13.10;90.70
29363;DHT22;16349;53.672;10.014;2023-05-10T01:48:05;13.10;90.90
29363;DHT22;16349;53.672;10.014;2023-05-10T01:50:35;13.00;91.10
29363;DHT22;16349;53.672;10.014;2023-05-10T01:53:06;13.00;91.40
29363;DHT22;16349;53.672;10.014;2023-05-10T01:55:38;13.00;91.70
29363;DHT22;16349;53.672;10.014;2023-05-10T01:58:08;12.90;92.00
29363;DHT22;16349;53.672;10.014;2023-05-10T02:00:40;12.90;92.30
29363;DHT22;16349;53.672;10.014;2023-05-10T02:03:14;12.90;92.50
29363;DHT22;16349;53.672;10.014;2023-05-10T02:05:43;12.90;92.80
29363;DHT22;16349;53.672;10.014;2023-05-10T02:08:13;12.80;92.90
29363;DHT22;16349;53.672;10.014;2023-05-10T02:10:42;12.80;93.30
29363;DHT22;16349;53.672;10.014;2023-05-10T02:13:10;12.80;93.60
29363;DHT22;16349;53.672;10.014;2023-05-10T02:15:38;12.70;94.00
29363;DHT22;16349;53.672;10.014;2023-05-10T02:18:07;12.70;94.20
29363;DHT22;16349;53.672;10.014;2023-05-10T02:20:37;12.70;94.50
29363;DHT22;16349;53.672;10.014;2023-05-10T02:23:06;12.60;94.80
29363;DHT22;16349;53.672;10.014;2023-05-10T02:25:36;12.60;99.90
29363;DHT22;16349;53.672;10.014;2023-05-10T02:28:06;12.60;95.60
29363;DHT22;16349;53.672;10.014;2023-05-10T02:30:35;12.50;95.90
29363;DHT22;16349;53.672;10.014;2023-05-10T02:33:04;12.50;96.20
29363;DHT22;16349;53.672;10.014;2023-05-10T02:35:32;12.50;96.60
29363;DHT22;16349;53.672;10.014;2023-05-10T02:38:02;12.50;96.70
29363;DHT22;16349;53.672;10.014;2023-05-10T02:40:32;12.50;96.80
29363;DHT22;16349;53.672;10.014;2023-05-10T02:43:01;12.40;97.10
29363;DHT22;16349;53.672;10.014;2023-05-10T02:45:31;12.40;97.50
29363;DHT22;16349;53.672;10.014;2023-05-10T02:47:59;12.30;97.80
29363;DHT22;16349;53.672;10.014;2023-05-10T02:50:28;12.30;98.00
29363;DHT22;16349;53.672;10.014;2023-05-10T02:53:00;12.30;98.10
29363;DHT22;16349;53.672;10.014;2023-05-10T02:55:33;12.30;98.30
29363;DHT22;16349;53.672;10.014;2023-05-10T02:58:02;12.30;98.40
29363;DHT22;16349;53.672;10.014;2023-05-10T03:00:29;12.30;98.80
29363;DHT22;16349;53.672;10.014;2023-05-10T03:02:56;12.20;99.00
29363;DHT22;16349;53.672;10.014;2023-05-10T03:05:25;12.20;99.20
29363;DHT22;16349;53.672;10.014;2023-05-10T03:07:52;12.10;99.40
29363;DHT22;16349;53.672;10.014;2023-05-10T03:10:21;12.10;99.70
29363;DHT22;16349;53.672;10.014;2023-05-10T03:13:02;12.10;99.90
29363;DHT22;16349;53.672;10.014;2023-05-10T03:15:37;12.10;99.90
29363;DHT22;16349;53.672;10.014;2023-05-10T03:18:08;12.10;99.90
29363;DHT22;16349;53.672;10.014;2023-05-10T03:20:41;12.00;99.90
29363;DHT22;16349;53.672;10.014;2023-05-10T03:23:13;12.00;99.90
29363;DHT22;16349;53.672;10.014;2023-05-10T03:25:46;12.00;99.90
29363;DHT22;16349;53.672;10.014;2023-05-10T03:28:18;12.00;99.90
29363;DHT22;16349;53.672;10.014;2023-05-10T03:30:46;12.00;99.90
29363;DHT22;16349;53.672;10.014;2023-05-10T03:33:13;12.00;99.90
29363;DHT22;16349;53.672;10.014;2023-05-10T03:35:43;12.00;99.90
29363;DHT22;16349;53.672;10.014;2023-05-10T03:38:12;12.00;99.90
29363;DHT22;16349;53.672;10.014;2023-05-10T03:40:40;12.00;99.90
29363;DHT22;16349;53.672;10.014;2023-05-10T03:43:07;12.00;99.90
29363;DHT22;16349;53.672;10.014;2023-05-10T03:45:35;11.90;99.90
29363;DHT22;16349;53.672;10.014;2023-05-10T03:48:03;12.00;99.90
29363;DHT22;16349;53.672;10.014;2023-05-10T03:50:30;11.90;99.90
29363;DHT22;16349;53.672;10.014;2023-05-10T03:52:57;12.00;99.90
29363;DHT22;16349;53.672;10.014;2023-05-10T03:55:24;11.90;99.90
29363;DHT22;16349;53.672;10.014;2023-05-10T03:57:51;11.90;99.90
29363;DHT22;16349;53.672;10.014;2023-05-10T04:00:21;12.00;99.90
29363;DHT22;16349;53.672;10.014;2023-05-10T04:02:52;11.90;99.90
29363;DHT22;16349;53.672;10.014;2023-05-10T04:05:19;11.90;99.90
29363;DHT22;16349;53.672;10.014;2023-05-10T04:07:47;11.90;99.90
29363;DHT22;16349;53.672;10.014;2023-05-10T04:10:15;11.90;99.90
29363;DHT22;16349;53.672;10.014;2023-05-10T04:12:43;11.90;99.90
29363;DHT22;16349;53.672;10.014;2023-05-10T04:15:10;11.90;99.90
29363;DHT22;16349;53.672;10.014;2023-05-10T04:17:37;11.90;99.90
29363;DHT22;16349;53.672;10.014;2023-05-10T04:20:07;11.90;99.90
29363;DHT22;16349;53.672;10.014;2023-05-10T04:22:34;11.90;99.90
29363;DHT22;16349;53.672;10.014;2023-05-10T04:25:00;12.00;99.90
29363;DHT22;16349;53.672;10.014;2023-05-10T04:27:27;11.90;99.90
29363;DHT22;16349;53.672;10.014;2023-05-10T04:29:54;11.90;99.90
29363;DHT22;16349;53.672;10.014;2023-05-10T04:32:21;12.00;99.90
29363;DHT22;16349;53.672;10.014;2023-05-10T04:34:48;12.00;99.90
29363;DHT22;16349;53.672;10.014;2023-05-10T04:37:17;12.00;99.90
29363;DHT22;16349;53.672;10.014;2023-05-10T04:39:45;11.90;99.90
29363;DHT22;16349;53.672;10.014;2023-05-10T04:42:11;12.00;99.90
29363;DHT22;16349;53.672;10.014;2023-05-10T04:44:40;12.00;99.90
29363;DHT22;16349;53.672;10.014;2023-05-10T04:47:07;12.00;99.90
29363;DHT22;16349;53.672;10.014;2023-05-10T04:49:34;12.00;99.90
29363;DHT22;16349;53.672;10.014;2023-05-10T04:52:01;12.00;99.90
29363;DHT22;16349;53.672;10.014;2023-05-10T04:54:29;12.00;99.90
29363;DHT22;16349;53.672;10.014;2023-05-10T04:56:56;12.10;99.90
29363;DHT22;16349;53.672;10.014;2023-05-10T04:59:23;12.10;99.90
29363;DHT22;16349;53.672;10.014;2023-05-10T05:01:50;12.10;99.90
29363;DHT22;16349;53.672;10.014;2023-05-10T05:04:17;12.20;99.90
29363;DHT22;16349;53.672;10.014;2023-05-10T05:06:44;12.20;99.90
29363;DHT22;16349;53.672;10.014;2023-05-10T05:09:11;12.20;99.90
29363;DHT22;16349;53.672;10.014;2023-05-10T05:11:39;12.30;99.90
29363;DHT22;16349;53.672;10.014;2023-05-10T05:14:06;12.30;99.90
29363;DHT22;16349;53.672;10.014;2023-05-10T05:16:33;12.40;99.90
29363;DHT22;16349;53.672;10.014;2023-05-10T05:19:00;12.40;99.90
29363;DHT22;16349;53.672;10.014;2023-05-10T05:21:28;12.50;99.90
29363;DHT22;16349;53.672;10.014;2023-05-10T05:23:55;12.60;99.90
29363;DHT22;16349;53.672;10.014;2023-05-10T05:26:21;12.60;99.90
29363;DHT22;16349;53.672;10.014;2023-05-10T05:28:50;12.70;99.90
29363;DHT22;16349;53.672;10.014;2023-05-10T05:31:20;12.70;99.90
29363;DHT22;16349;53.672;10.014;2023-05-10T05:33:47;12.80;99.90
29363;DHT22;16349;53.672;10.014;2023-05-10T05:36:14;12.80;99.90
29363;DHT22;16349;53.672;10.014;2023-05-10T05:38:42;12.90;99.90
29363;DHT22;16349;53.672;10.014;2023-05-10T05:41:08;12.90;99.90
29363;DHT22;16349;53.672;10.014;2023-05-10T05:43:36;13.00;99.90
29363;DHT22;16349;53.672;10.014;2023-05-10T05:46:04;13.10;99.90
29363;DHT22;16349;53.672;10.014;2023-05-10T05:48:33;13.10;99.90
29363;DHT22;16349;53.672;10.014;2023-05-10T05:50:59;13.20;99.90
29363;DHT22;16349;53.672;10.014;2023-05-10T05:53:26;13.30;99.90
29363;DHT22;16349;53.672;10.014;2023-05-10T05:55:53;13.30;99.90
29363;DHT22;16349;53.672;10.014;2023-05-10T05:58:20;13.40;99.90
29363;DHT22;16349;53.672;10.014;2023-05-10T06:00:48;13.50;99.90
29363;DHT22;16349;53.672;10.014;2023-05-10T06:03:16;13.60;99.90
29363;DHT22;16349;53.672;10.014;2023-05-10T06:05:42;13.60;99.90
29363;DHT22;16349;53.672;10.014;2023-05-10T06:08:09;13.80;99.90
29363;DHT22;16349;53.672;10.014;2023-05-10T06:10:36;13.90;99.90
29363;DHT22;16349;53.672;10.014;2023-05-10T06:13:03;13.90;99.90
29363;DHT22;16349;53.672;10.014;2023-05-10T06:15:31;14.00;99.90
29363;DHT22;16349;53.672;10.014;2023-05-10T06:17:58;14.00;99.90
29363;DHT22;16349;53.672;10.014;2023-05-10T06:20:26;14.10;99.90
29363;DHT22;16349;53.672;10.014;2023-05-10T06:22:52;14.20;99.90
29363;DHT22;16349;53.672;10.014;2023-05-10T06:25:20;14.30;99.90
29363;DHT22;16349;53.672;10.014;2023-05-10T06:27:47;14.30;99.70
29363;DHT22;16349;53.672;10.014;2023-05-10T06:30:14;14.40;99.40
29363;DHT22;16349;53.672;10.014;2023-05-10T06:32:42;14.50;99.60
29363;DHT22;16349;53.672;10.014;2023-05-10T06:35:11;14.60;99.30
29363;DHT22;16349;53.672;10.014;2023-05-10T06:37:40;14.70;99.10
29363;DHT22;16349;53.672;10.014;2023-05-10T06:40:29;14.80;99.20
29363;DHT22;16349;53.672;10.014;2023-05-10T06:42:56;14.80;98.80
29363;DHT22;16349;53.672;10.014;2023-05-10T06:45:44;14.70;98.60
29363;DHT22;16349;53.672;10.014;2023-05-10T06:48:12;14.70;98.80
29363;DHT22;16349;53.672;10.014;2023-05-10T06:50:38;14.80;98.80
29363;DHT22;16349;53.672;10.014;2023-05-10T06:53:07;14.80;98.50
29363;DHT22;16349;53.672;10.014;2023-05-10T06:55:34;14.90;98.60
29363;DHT22;16349;53.672;10.014;2023-05-10T06:58:00;15.00;98.50
29363;DHT22;16349;53.672;10.014;2023-05-10T07:00:28;15.10;98.30
29363;DHT22;16349;53.672;10.014;2023-05-10T07:02:55;15.20;98.30
29363;DHT22;16349;53.672;10.014;2023-05-10T07:05:21;15.20;98.00
29363;DHT22;16349;53.672;10.014;2023-05-10T07:07:48;15.20;98.00
29363;DHT22;16349;53.672;10.014;2023-05-10T07:10:16;15.30;98.30
29363;DHT22;16349;53.672;10.014;2023-05-10T07:12:43;15.40;98.40
29363;DHT22;16349;53.672;10.014;2023-05-10T07:15:10;15.30;99.30
29363;DHT22;16349;53.672;10.014;2023-05-10T07:17:37;15.40;99.90
29363;DHT22;16349;53.672;10.014;2023-05-10T07:20:05;15.50;97.90
29363;DHT22;16349;53.672;10.014;2023-05-10T07:22:32;15.40;97.90
29363;DHT22;16349;53.672;10.014;2023-05-10T07:24:59;15.50;97.70
29363;DHT22;16349;53.672;10.014;2023-05-10T07:27:27;15.50;97.40
29363;DHT22;16349;53.672;10.014;2023-05-10T07:29:53;15.60;97.40
29363;DHT22;16349;53.672;10.014;2023-05-10T07:32:22;15.60;97.10
29363;DHT22;16349;53.672;10.014;2023-05-10T07:34:48;15.60;97.30
29363;DHT22;16349;53.672;10.014;2023-05-10T07:37:15;15.70;96.90
29363;DHT22;16349;53.672;10.014;2023-05-10T07:39:42;15.70;97.00
29363;DHT22;16349;53.672;10.014;2023-05-10T07:42:08;15.80;97.40
29363;DHT22;16349;53.672;10.014;2023-05-10T07:44:36;15.80;96.90
29363;DHT22;16349;53.672;10.014;2023-05-10T07:47:03;15.80;97.00
29363;DHT22;16349;53.672;10.014;2023-05-10T07:49:30;15.80;96.90
29363;DHT22;16349;53.672;10.014;2023-05-10T07:51:56;15.80;96.70
29363;DHT22;16349;53.672;10.014;2023-05-10T07:54:23;15.80;96.90
29363;DHT22;16349;53.672;10.014;2023-05-10T07:56:50;15.90;96.80
29363;DHT22;16349;53.672;10.014;2023-05-10T07:59:18;15.90;96.90
29363;DHT22;16349;53.672;10.014;2023-05-10T08:01:47;16.00;96.70
29363;DHT22;16349;53.672;10.014;2023-05-10T08:04:15;16.30;96.20
29363;DHT22;16349;53.672;10.014;2023-05-10T08:06:42;16.30;96.50
29363;DHT22;16349;53.672;10.014;2023-05-10T08:09:09;16.30;96.60
29363;DHT22;16349;53.672;10.014;2023-05-10T08:11:36;16.40;96.60
29363;DHT22;16349;53.672;10.014;2023-05-10T08:14:03;16.40;96.70
29363;DHT22;16349;53.672;10.014;2023-05-10T08:16:30;16.50;96.60
29363;DHT22;16349;53.672;10.014;2023-05-10T08:18:59;16.50;96.60
29363;DHT22;16349;53.672;10.014;2023-05-10T08:21:25;16.50;96.70
29363;DHT22;16349;53.672;10.014;2023-05-10T08:23:52;16.50;96.70
29363;DHT22;16349;53.672;10.014;2023-05-10T08:26:19;16.50;96.60
29363;DHT22;16349;53.672;10.014;2023-05-10T08:28:46;16.50;96.50
29363;DHT22;16349;53.672;10.014;2023-05-10T08:31:15;16.60;96.60
29363;DHT22;16349;53.672;10.014;2023-05-10T08:33:42;16.60;96.30
29363;DHT22;16349;53.672;10.014;2023-05-10T08:36:10;16.60;96.20
29363;DHT22;16349;53.672;10.014;2023-05-10T08:38:39;16.50;96.10
29363;DHT22;16349;53.672;10.014;2023-05-10T08:41:06;16.50;96.30
29363;DHT22;16349;53.672;10.014;2023-05-10T08:43:35;16.60;96.30
29363;DHT22;16349;53.672;10.014;2023-05-10T08:46:05;16.60;96.40
29363;DHT22;16349;53.672;10.014;2023-05-10T08:48:34;16.70;96.10
29363;DHT22;16349;53.672;10.014;2023-05-10T08:51:03;16.80;96.10
29363;DHT22;16349;53.672;10.014;2023-05-10T08:53:32;16.90;96.10
29363;DHT22;16349;53.672;10.014;2023-05-10T08:56:02;16.90;95.90
29363;DHT22;16349;53.672;10.014;2023-05-10T08:58:28;16.80;95.90
29363;DHT22;16349;53.672;10.014;2023-05-10T09:00:57;16.70;95.60
29363;DHT22;16349;53.672;10.014;2023-05-10T09:03:24;16.70;95.70
29363;DHT22;16349;53.672;10.014;2023-05-10T09:05:50;16.60;95.90
29363;DHT22;16349;53.672;10.014;2023-05-10T09:08:18;16.70;96.00
29363;DHT22;16349;53.672;10.014;2023-05-10T09:10:46;16.70;95.60
29363;DHT22;16349;53.672;10.014;2023-05-10T09:13:15;16.70;95.60
29363;DHT22;16349;53.672;10.014;2023-05-10T09:15:42;16.80;95.50
29363;DHT22;16349;53.672;10.014;2023-05-10T09:18:09;16.80;95.10
29363;DHT22;16349;53.672;10.014;2023-05-10T09:20:36;16.90;95.60
29363;DHT22;16349;53.672;10.014;2023-05-10T09:23:03;17.00;95.60
29363;DHT22;16349;53.672;10.014;2023-05-10T09:25:31;17.10;95.30
29363;DHT22;16349;53.672;10.014;2023-05-10T09:28:00;17.10;95.30
29363;DHT22;16349;53.672;10.014;2023-05-10T09:30:27;17.20;95.60
29363;DHT22;16349;53.672;10.014;2023-05-10T09:35:24;17.20;95.20
29363;DHT22;16349;53.672;10.014;2023-05-10T09:37:52;17.30;95.50
29363;DHT22;16349;53.672;10.014;2023-05-10T09:40:21;17.30;95.50
29363;DHT22;16349;53.672;10.014;2023-05-10T09:42:52;17.20;95.60
29363;DHT22;16349;53.672;10.014;2023-05-10T09:45:22;17.10;95.80
29363;DHT22;16349;53.672;10.014;2023-05-10T09:47:49;17.10;95.80
29363;DHT22;16349;53.672;10.014;2023-05-10T09:50:16;17.10;95.90
29363;DHT22;16349;53.672;10.014;2023-05-10T09:52:47;17.00;96.00
29363;DHT22;16349;53.672;10.014;2023-05-10T09:55:14;17.00;96.20
29363;DHT22;16349;53.672;10.014;2023-05-10T09:57:41;16.90;96.30
29363;DHT22;16349;53.672;10.014;2023-05-10T10:00:09;16.90;96.30
29363;DHT22;16349;53.672;10.014;2023-05-10T10:02:45;17.00;96.20
29363;DHT22;16349;53.672;10.014;2023-05-10T10:05:12;17.10;96.00
29363;DHT22;16349;53.672;10.014;2023-05-10T10:07:39;17.10;96.40
29363;DHT22;16349;53.672;10.014;2023-05-10T10:10:07;17.00;96.70
29363;DHT22;16349;53.672;10.014;2023-05-10T10:12:37;17.10;96.60
29363;DHT22;16349;53.672;10.014;2023-05-10T10:15:05;17.00;96.70
29363;DHT22;16349;53.672;10.014;2023-05-10T10:17:32;17.00;97.30
29363;DHT22;16349;53.672;10.014;2023-05-10T10:20:04;16.90;97.80
29363;DHT22;16349;53.672;10.014;2023-05-10T10:22:31;16.70;98.70
29363;DHT22;16349;53.672;10.014;2023-05-10T10:24:58;16.50;99.90
29363;DHT22;16349;53.672;10.014;2023-05-10T10:27:34;16.20;99.90
29363;DHT22;16349;53.672;10.014;2023-05-10T10:30:14;16.10;99.90
29363;DHT22;16349;53.672;10.014;2023-05-10T10:32:59;16.00;99.90
29363;DHT22;16349;53.672;10.014;2023-05-10T10:35:30;15.80;99.90
29363;DHT22;16349;53.672;10.014;2023-05-10T10:37:58;15.70;99.90
29363;DHT22;16349;53.672;10.014;2023-05-10T10:40:26;15.50;99.90
29363;DHT22;16349;53.672;10.014;2023-05-10T10:42:54;15.40;99.90
29363;DHT22;16349;53.672;10.014;2023-05-10T10:45:22;15.30;99.90
29363;DHT22;16349;53.672;10.014;2023-05-10T10:47:58;15.20;99.90
29363;DHT22;16349;53.672;10.014;2023-05-10T10:50:46;15.20;99.90
29363;DHT22;16349;53.672;10.014;2023-05-10T10:53:13;15.20;99.90
29363;DHT22;16349;53.672;10.014;2023-05-10T10:55:46;15.20;99.90
29363;DHT22;16349;53.672;10.014;2023-05-10T10:58:28;15.20;99.90
29363;DHT22;16349;53.672;10.014;2023-05-10T11:01:10;15.00;99.90
29363;DHT22;16349;53.672;10.014;2023-05-10T11:03:37;15.10;99.90
29363;DHT22;16349;53.672;10.014;2023-05-10T11:06:05;15.10;99.90
29363;DHT22;16349;53.672;10.014;2023-05-10T11:08:34;15.20;99.90
29363;DHT22;16349;53.672;10.014;2023-05-10T11:11:03;15.20;99.90
29363;DHT22;16349;53.672;10.014;2023-05-10T11:13:34;15.20;99.90
29363;DHT22;16349;53.672;10.014;2023-05-10T11:16:10;15.10;99.90
29363;DHT22;16349;53.672;10.014;2023-05-10T11:18:37;15.10;99.90
29363;DHT22;16349;53.672;10.014;2023-05-10T11:21:08;15.10;99.90
29363;DHT22;16349;53.672;10.014;2023-05-10T11:23:48;15.10;99.90
29363;DHT22;16349;53.672;10.014;2023-05-10T11:26:16;15.10;99.90
29363;DHT22;16349;53.672;10.014;2023-05-10T11:28:44;15.20;99.90
29363;DHT22;16349;53.672;10.014;2023-05-10T11:31:13;15.30;99.90
29363;DHT22;16349;53.672;10.014;2023-05-10T11:33:43;15.30;99.90
29363;DHT22;16349;53.672;10.014;2023-05-10T11:36:14;15.20;99.90
29363;DHT22;16349;53.672;10.014;2023-05-10T11:38:41;15.20;99.90
29363;DHT22;16349;53.672;10.014;2023-05-10T11:41:08;15.20;99.90
29363;DHT22;16349;53.672;10.014;2023-05-10T11:43:37;15.10;99.90
29363;DHT22;16349;53.672;10.014;2023-05-10T11:46:04;15.10;99.90
29363;DHT22;16349;53.672;10.014;2023-05-10T11:48:32;15.00;99.90
29363;DHT22;16349;53.672;10.014;2023-05-10T11:51:00;15.10;99.90
29363;DHT22;16349;53.672;10.014;2023-05-10T11:53:32;15.10;99.90
29363;DHT22;16349;53.672;10.014;2023-05-10T11:56:03;15.20;99.90
29363;DHT22;16349;53.672;10.014;2023-05-10T11:58:31;15.30;99.90
29363;DHT22;16349;53.672;10.014;2023-05-10T12:00:58;15.20;99.90
29363;DHT22;16349;53.672;10.014;2023-05-10T12:03:25;15.20;99.90
29363;DHT22;16349;53.672;10.014;2023-05-10T12:05:51;15.30;99.90
29363;DHT22;16349;53.672;10.014;2023-05-10T12:08:22;15.30;99.90
29363;DHT22;16349;53.672;10.014;2023-05-10T12:10:51;15.20;99.90
29363;DHT22;16349;53.672;10.014;2023-05-10T12:13:19;15.20;99.90
29363;DHT22;16349;53.672;10.014;2023-05-10T12:15:47;15.20;99.90
29363;DHT22;16349;53.672;10.014;2023-05-10T12:18:14;15.10;99.90
29363;DHT22;16349;53.672;10.014;2023-05-10T12:20:41;15.10;99.90
29363;DHT22;16349;53.672;10.014;2023-05-10T12:23:09;15.00;99.90
29363;DHT22;16349;53.672;10.014;2023-05-10T12:25:37;15.10;99.90
29363;DHT22;16349;53.672;10.014;2023-05-10T12:28:06;15.10;99.90
29363;DHT22;16349;53.672;10.014;2023-05-10T12:30:35;15.20;99.90
29363;DHT22;16349;53.672;10.014;2023-05-10T12:33:03;15.30;99.90
29363;DHT22;16349;53.672;10.014;2023-05-10T12:35:43;15.30;99.90
29363;DHT22;16349;53.672;10.014;2023-05-10T12:38:25;15.30;99.90
29363;DHT22;16349;53.672;10.014;2023-05-10T12:40:52;15.40;99.90
29363;DHT22;16349;53.672;10.014;2023-05-10T12:43:20;15.40;99.90
29363;DHT22;16349;53.672;10.014;2023-05-10T12:45:47;15.40;99.90
29363;DHT22;16349;53.672;10.014;2023-05-10T12:48:14;15.40;99.90
29363;DHT22;16349;53.672;10.014;2023-05-10T12:50:41;15.50;99.90
29363;DHT22;16349;53.672;10.014;2023-05-10T12:53:07;15.50;99.90
29363;DHT22;16349;53.672;10.014;2023-05-10T12:55:34;15.60;99.90
29363;DHT22;16349;53.672;10.014;2023-05-10T12:58:01;15.60;99.90
29363;DHT22;16349;53.672;10.014;2023-05-10T13:00:29;15.70;99.90
29363;DHT22;16349;53.672;10.014;2023-05-10T13:02:56;15.80;99.90
29363;DHT22;16349;53.672;10.014;2023-05-10T13:05:22;15.90;99.90
29363;DHT22;16349;53.672;10.014;2023-05-10T13:07:50;15.90;99.90
29363;DHT22;16349;53.672;10.014;2023-05-10T13:10:17;16.00;99.90
29363;DHT22;16349;53.672;10.014;2023-05-10T13:12:44;16.10;99.90
29363;DHT22;16349;53.672;10.014;2023-05-10T13:15:10;16.10;99.90
29363;DHT22;16349;53.672;10.014;2023-05-10T13:17:38;16.10;99.90
29363;DHT22;16349;53.672;10.014;2023-05-10T13:20:06;16.30;99.90
29363;DHT22;16349;53.672;10.014;2023-05-10T13:22:33;16.50;99.90
29363;DHT22;16349;53.672;10.014;2023-05-10T13:25:00;16.50;99.90
29363;DHT22;16349;53.672;10.014;2023-05-10T13:27:27;16.50;99.90
29363;DHT22;16349;53.672;10.014;2023-05-10T13:29:54;16.60;99.90
29363;DHT22;16349;53.672;10.014;2023-05-10T13:32:21;16.70;99.90
29363;DHT22;16349;53.672;10.014;2023-05-10T13:34:49;16.70;99.90
29363;DHT22;16349;53.672;10.014;2023-05-10T13:37:16;16.70;99.90
29363;DHT22;16349;53.672;10.014;2023-05-10T13:39:43;16.80;99.90
29363;DHT22;16349;53.672;10.014;2023-05-10T13:42:09;16.90;99.90
29363;DHT22;16349;53.672;10.014;2023-05-10T13:44:36;17.10;99.90
29363;DHT22;16349;53.672;10.014;2023-05-10T13:47:04;17.30;99.90
29363;DHT22;16349;53.672;10.014;2023-05-10T13:49:31;17.40;99.90
29363;DHT22;16349;53.672;10.014;2023-05-10T13:51:59;17.50;99.90
29363;DHT22;16349;53.672;10.014;2023-05-10T13:54:31;17.40;99.90
29363;DHT22;16349;53.672;10.014;2023-05-10T13:56:58;17.20;99.90
29363;DHT22;16349;53.672;10.014;2023-05-10T13:59:25;17.10;99.90
29363;DHT22;16349;53.672;10.014;2023-05-10T14:01:52;17.00;99.90
29363;DHT22;16349;53.672;10.014;2023-05-10T14:04:19;17.00;99.90
29363;DHT22;16349;53.672;10.014;2023-05-10T14:06:45;17.00;99.90
29363;DHT22;16349;53.672;10.014;2023-05-10T14:09:13;17.00;99.90
29363;DHT22;16349;53.672;10.014;2023-05-10T14:11:40;17.00;99.90
29363;DHT22;16349;53.672;10.014;2023-05-10T14:14:08;17.00;99.90
29363;DHT22;16349;53.672;10.014;2023-05-10T14:16:36;16.90;99.90
29363;DHT22;16349;53.672;10.014;2023-05-10T14:19:02;16.90;99.90
29363;DHT22;16349;53.672;10.014;2023-05-10T14:21:29;16.90;99.90
29363;DHT22;16349;53.672;10.014;2023-05-10T14:23:56;16.80;99.90
29363;DHT22;16349;53.672;10.014;2023-05-10T14:26:24;16.80;99.90
29363;DHT22;16349;53.672;10.014;2023-05-10T14:28:51;16.80;99.90
29363;DHT22;16349;53.672;10.014;2023-05-10T14:31:19;16.80;99.90
29363;DHT22;16349;53.672;10.014;2023-05-10T14:33:46;16.80;99.90
29363;DHT22;16349;53.672;10.014;2023-05-10T14:36:12;17.00;99.90
29363;DHT22;16349;53.672;10.014;2023-05-10T14:38:39;17.00;99.90
29363;DHT22;16349;53.672;10.014;2023-05-10T14:41:06;17.00;99.90
29363;DHT22;16349;53.672;10.014;2023-05-10T14:43:34;17.10;99.90
29363;DHT22;16349;53.672;10.014;2023-05-10T14:46:02;17.00;99.90
29363;DHT22;16349;53.672;10.014;2023-05-10T14:48:29;17.10;99.90
29363;DHT22;16349;53.672;10.014;2023-05-10T14:50:57;17.10;99.90
29363;DHT22;16349;53.672;10.014;2023-05-10T14:53:23;17.10;99.90
29363;DHT22;16349;53.672;10.014;2023-05-10T14:55:50;17.10;99.90
29363;DHT22;16349;53.672;10.014;2023-05-10T14:58:17;17.20;99.90
29363;DHT22;16349;53.672;10.014;2023-05-10T15:00:45;17.20;99.90
29363;DHT22;16349;53.672;10.014;2023-05-10T15:03:12;17.30;99.90
29363;DHT22;16349;53.672;10.014;2023-05-10T15:05:39;17.40;99.90
29363;DHT22;16349;53.672;10.014;2023-05-10T15:08:07;17.40;99.90
29363;DHT22;16349;53.672;10.014;2023-05-10T15:10:34;17.50;99.90
29363;DHT22;16349;53.672;10.014;2023-05-10T15:13:23;17.50;99.90
29363;DHT22;16349;53.672;10.014;2023-05-10T15:15:52;17.60;99.90
29363;DHT22;16349;53.672;10.014;2023-05-10T15:18:18;17.60;99.90
29363;DHT22;16349;53.672;10.014;2023-05-10T15:20:46;17.50;99.90
29363;DHT22;16349;53.672;10.014;2023-05-10T15:23:13;17.70;99.90
29363;DHT22;16349;53.672;10.014;2023-05-10T15:25:39;17.70;99.90
29363;DHT22;16349;53.672;10.014;2023-05-10T15:28:06;17.80;99.90
29363;DHT22;16349;53.672;10.014;2023-05-10T15:30:33;17.90;99.90
29363;DHT22;16349;53.672;10.014;2023-05-10T15:33:01;17.90;99.90